sensor_id;sensor_type;location;lat;lon;timestamp;pressure;altitude;pressure_sealevel;temperature;humidity
23223;BME280;11780;13.904;100.620;2023-09-30T00:19:21;101156.94;;;28.73;82.63
23223;BME280;11780;13.904;100.620;2023-09-30T00:21:56;101155.75;;;28.79;82.48
23223;BME280;11780;13.904;100.620;2023-09-30T00:24:26;101167.81;;;28.83;82.31
23223;BME280;11780;13.904;100.620;2023-09-30T00:26:56;101177.94;;;28.88;82.14
23223;BME280;11780;13.904;100.620;2023-09-30T00:29:27;101181.94;;;28.96;81.94
23223;BME280;11780;13.904;100.620;2023-09-30T00:31:57;101179.91;;;29.01;81.92
23223;BME280;11780;13.904;100.620;2023-09-30T00:34:28;101188.91;;;29.07;81.57
23223;BME280;11780;13.904;100.620;2023-09-30T00:36:58;101199.06;;;29.12;81.36
23223;BME280;11780;13.904;100.620;2023-09-30T00:39:28;101200.75;;;29.08;81.46
23223;BME280;11780;13.904;100.620;2023-09-30T00:42:02;101201.72;;;29.17;81.54
23223;BME280;11780;13.904;100.620;2023-09-30T00:44:34;101217.25;;;29.27;81.28
23223;BME280;11780;13.904;100.620;2023-09-30T00:47:04;101211.94;;;29.30;81.23
23223;BME280;11780;13.904;100.620;2023-09-30T00:49:37;101212.19;;;29.34;80.99
23223;BME280;11780;13.904;100.620;2023-09-30T00:52:08;101222.94;;;29.36;80.98
23223;BME280;11780;13.904;100.620;2023-09-30T00:54:39;101226.94;;;29.43;80.81
23223;BME280;11780;13.904;100.620;2023-09-30T00:57:10;101226.63;;;29.45;80.65
23223;BME280;11780;13.904;100.620;2023-09-30T00:59:41;101233.78;;;29.46;80.58
23223;BME280;11780;13.904;100.620;2023-09-30T01:02:12;101228.03;;;29.42;80.45
23223;BME280;11780;13.904;100.620;2023-09-30T01:04:42;101239.28;;;29.46;80.57
23223;BME280;11780;13.904;100.620;2023-09-30T01:07:14;101245.41;;;29.43;80.62
23223;BME280;11780;13.904;100.620;2023-09-30T01:09:45;101245.31;;;29.48;80.69
23223;BME280;11780;13.904;100.620;2023-09-30T01:12:16;101243.53;;;29.38;80.82
23223;BME280;11780;13.904;100.620;2023-09-30T01:14:46;101261.97;;;29.43;80.93
23223;BME280;11780;13.904;100.620;2023-09-30T01:17:17;101256.28;;;29.34;81.04
23223;BME280;11780;13.904;100.620;2023-09-30T01:19:48;101260.69;;;29.35;81.19
23223;BME280;11780;13.904;100.620;2023-09-30T01:22:19;101266.78;;;29.32;81.10
23223;BME280;11780;13.904;100.620;2023-09-30T01:24:51;101267.22;;;29.39;81.39
23223;BME280;11780;13.904;100.620;2023-09-30T01:27:21;101268.34;;;29.38;81.25
23223;BME280;11780;13.904;100.620;2023-09-30T01:29:51;101271.63;;;29.40;81.21
23223;BME280;11780;13.904;100.620;2023-09-30T01:32:22;101270.72;;;29.45;81.35
23223;BME280;11780;13.904;100.620;2023-09-30T01:34:54;101275.63;;;29.48;81.28
23223;BME280;11780;13.904;100.620;2023-09-30T01:37:27;101276.47;;;29.49;81.03
23223;BME280;11780;13.904;100.620;2023-09-30T01:39:58;101277.25;;;29.49;80.90
23223;BME280;11780;13.904;100.620;2023-09-30T01:42:28;101288.00;;;29.51;81.16
23223;BME280;11780;13.904;100.620;2023-09-30T01:45:01;101284.09;;;29.52;80.93
23223;BME280;11780;13.904;100.620;2023-09-30T01:47:31;101285.25;;;29.51;80.93
23223;BME280;11780;13.904;100.620;2023-09-30T01:50:01;101292.09;;;29.53;81.17
23223;BME280;11780;13.904;100.620;2023-09-30T01:52:32;101294.00;;;29.53;81.31
23223;BME280;11780;13.904;100.620;2023-09-30T01:55:02;101297.81;;;29.57;81.03
23223;BME280;11780;13.904;100.620;2023-09-30T01:57:33;101296.69;;;29.58;81.19
23223;BME280;11780;13.904;100.620;2023-09-30T02:00:04;101298.53;;;29.62;80.78
23223;BME280;11780;13.904;100.620;2023-09-30T02:02:38;101297.94;;;29.66;80.91
23223;BME280;11780;13.904;100.620;2023-09-30T02:05:09;101296.03;;;29.66;81.08
23223;BME280;11780;13.904;100.620;2023-09-30T02:07:39;101310.94;;;29.65;80.80
23223;BME280;11780;13.904;100.620;2023-09-30T02:10:10;101306.53;;;29.64;80.92
23223;BME280;11780;13.904;100.620;2023-09-30T02:12:41;101304.88;;;29.63;81.04
23223;BME280;11780;13.904;100.620;2023-09-30T02:15:13;101308.38;;;29.69;80.89
23223;BME280;11780;13.904;100.620;2023-09-30T02:17:43;101312.03;;;29.64;80.03
23223;BME280;11780;13.904;100.620;2023-09-30T02:20:15;101306.53;;;29.64;80.23
23223;BME280;11780;13.904;100.620;2023-09-30T02:22:49;101306.75;;;29.68;80.28
23223;BME280;11780;13.904;100.620;2023-09-30T02:25:19;101305.31;;;29.70;80.38
23223;BME280;11780;13.904;100.620;2023-09-30T02:27:50;101314.63;;;29.74;80.59
23223;BME280;11780;13.904;100.620;2023-09-30T02:30:21;101309.63;;;29.76;80.50
23223;BME280;11780;13.904;100.620;2023-09-30T02:32:51;101312.38;;;29.76;80.68
23223;BME280;11780;13.904;100.620;2023-09-30T02:35:22;101314.53;;;29.80;80.31
23223;BME280;11780;13.904;100.620;2023-09-30T02:37:53;101316.97;;;29.81;80.04
23223;BME280;11780;13.904;100.620;2023-09-30T02:40:23;101314.22;;;29.81;80.01
23223;BME280;11780;13.904;100.620;2023-09-30T02:42:55;101319.94;;;29.85;80.11
23223;BME280;11780;13.904;100.620;2023-09-30T02:45:25;101322.63;;;29.90;79.79
23223;BME280;11780;13.904;100.620;2023-09-30T02:47:56;101320.47;;;29.87;79.53
23223;BME280;11780;13.904;100.620;2023-09-30T02:50:26;101319.88;;;29.90;80.14
23223;BME280;11780;13.904;100.620;2023-09-30T02:52:59;101315.16;;;29.90;79.54
23223;BME280;11780;13.904;100.620;2023-09-30T02:55:31;101312.09;;;29.92;79.99
23223;BME280;11780;13.904;100.620;2023-09-30T02:58:02;101309.34;;;29.92;79.78
23223;BME280;11780;13.904;100.620;2023-09-30T03:00:33;101314.56;;;29.93;79.36
23223;BME280;11780;13.904;100.620;2023-09-30T03:03:04;101312.63;;;29.94;79.46
23223;BME280;11780;13.904;100.620;2023-09-30T03:05:35;101305.47;;;29.93;79.02
23223;BME280;11780;13.904;100.620;2023-09-30T03:08:05;101312.34;;;29.96;79.12
23223;BME280;11780;13.904;100.620;2023-09-30T03:10:38;101300.38;;;30.00;78.56
23223;BME280;11780;13.904;100.620;2023-09-30T03:13:10;101300.38;;;30.00;78.33
23223;BME280;11780;13.904;100.620;2023-09-30T03:15:41;101311.13;;;30.02;78.48
23223;BME280;11780;13.904;100.620;2023-09-30T03:18:11;101304.78;;;30.01;78.38
23223;BME280;11780;13.904;100.620;2023-09-30T03:20:43;101309.09;;;30.07;78.66
23223;BME280;11780;13.904;100.620;2023-09-30T03:23:13;101311.03;;;30.07;78.43
23223;BME280;11780;13.904;100.620;2023-09-30T03:25:44;101305.22;;;30.08;78.31
23223;BME280;11780;13.904;100.620;2023-09-30T03:28:14;101303.25;;;30.09;78.55
23223;BME280;11780;13.904;100.620;2023-09-30T03:30:45;101305.22;;;30.08;78.22
23223;BME280;11780;13.904;100.620;2023-09-30T03:33:16;101304.38;;;30.08;78.02
23223;BME280;11780;13.904;100.620;2023-09-30T03:35:47;101296.63;;;30.10;77.98
23223;BME280;11780;13.904;100.620;2023-09-30T03:38:17;101310.41;;;30.10;78.34
23223;BME280;11780;13.904;100.620;2023-09-30T03:40:50;101306.03;;;30.09;77.52
23223;BME280;11780;13.904;100.620;2023-09-30T03:43:23;101299.69;;;30.08;77.03
23223;BME280;11780;13.904;100.620;2023-09-30T03:45:54;101311.53;;;30.09;76.67
23223;BME280;11780;13.904;100.620;2023-09-30T03:48:25;101314.63;;;30.07;76.81
23223;BME280;11780;13.904;100.620;2023-09-30T03:50:56;101315.41;;;30.08;76.70
23223;BME280;11780;13.904;100.620;2023-09-30T03:53:27;101313.78;;;30.07;76.44
23223;BME280;11780;13.904;100.620;2023-09-30T03:55:57;101307.97;;;30.08;76.41
23223;BME280;11780;13.904;100.620;2023-09-30T03:58:27;101300.81;;;30.07;76.03
23223;BME280;11780;13.904;100.620;2023-09-30T04:00:57;101290.91;;;30.06;76.61
23223;BME280;11780;13.904;100.620;2023-09-30T04:03:28;101289.28;;;30.05;76.58
23223;BME280;11780;13.904;100.620;2023-09-30T04:05:59;101286.44;;;30.11;76.30
23223;BME280;11780;13.904;100.620;2023-09-30T04:08:30;101280.78;;;30.16;75.77
23223;BME280;11780;13.904;100.620;2023-09-30T04:11:03;101283.38;;;30.26;75.40
23223;BME280;11780;13.904;100.620;2023-09-30T04:13:33;101278.03;;;30.30;74.57
23223;BME280;11780;13.904;100.620;2023-09-30T04:16:04;101275.59;;;30.28;75.03
23223;BME280;11780;13.904;100.620;2023-09-30T04:18:35;101283.56;;;30.30;74.79
23223;BME280;11780;13.904;100.620;2023-09-30T04:21:05;101277.44;;;30.33;74.72
23223;BME280;11780;13.904;100.620;2023-09-30T04:23:37;101272.44;;;30.35;74.16
23223;BME280;11780;13.904;100.620;2023-09-30T04:26:08;101260.47;;;30.40;74.25
23223;BME280;11780;13.904;100.620;2023-09-30T04:28:39;101262.91;;;30.41;73.69
23223;BME280;11780;13.904;100.620;2023-09-30T04:31:10;101249.41;;;30.40;74.06
23223;BME280;11780;13.904;100.620;2023-09-30T04:33:42;101255.66;;;30.45;74.39
23223;BME280;11780;13.904;100.620;2023-09-30T04:36:13;101255.31;;;30.47;73.47
23223;BME280;11780;13.904;100.620;2023-09-30T04:38:43;101253.41;;;30.47;73.29
23223;BME280;11780;13.904;100.620;2023-09-30T04:41:14;101249.00;;;30.46;72.96
23223;BME280;11780;13.904;100.620;2023-09-30T04:43:45;101252.56;;;30.47;72.62
23223;BME280;11780;13.904;100.620;2023-09-30T04:46:16;101249.19;;;30.50;71.97
23223;BME280;11780;13.904;100.620;2023-09-30T04:48:50;101252.47;;;30.52;72.16
23223;BME280;11780;13.904;100.620;2023-09-30T04:51:22;101241.53;;;30.47;72.26
23223;BME280;11780;13.904;100.620;2023-09-30T04:53:52;101235.19;;;30.46;72.51
23223;BME280;11780;13.904;100.620;2023-09-30T04:56:25;101227.09;;;30.50;72.41
23223;BME280;11780;13.904;100.620;2023-09-30T04:58:56;101214.13;;;30.50;72.29
23223;BME280;11780;13.904;100.620;2023-09-30T05:01:26;101217.69;;;30.51;72.00
23223;BME280;11780;13.904;100.620;2023-09-30T05:03:57;101216.50;;;30.57;71.66
23223;BME280;11780;13.904;100.620;2023-09-30T05:06:28;101211.97;;;30.61;71.31
23223;BME280;11780;13.904;100.620;2023-09-30T05:08:58;101207.78;;;30.64;70.98
23223;BME280;11780;13.904;100.620;2023-09-30T05:11:29;101206.25;;;30.72;71.34
23223;BME280;11780;13.904;100.620;2023-09-30T05:14:00;101204.59;;;30.71;71.15
23223;BME280;11780;13.904;100.620;2023-09-30T05:16:31;101189.59;;;30.63;71.25
23223;BME280;11780;13.904;100.620;2023-09-30T05:19:01;101188.75;;;30.62;71.63
23223;BME280;11780;13.904;100.620;2023-09-30T05:21:32;101185.28;;;30.71;71.32
23223;BME280;11780;13.904;100.620;2023-09-30T05:24:04;101178.69;;;30.80;70.93
23223;BME280;11780;13.904;100.620;2023-09-30T05:26:35;101171.22;;;30.81;70.26
23223;BME280;11780;13.904;100.620;2023-09-30T05:29:06;101160.78;;;30.78;70.81
23223;BME280;11780;13.904;100.620;2023-09-30T05:31:37;101158.34;;;30.76;70.90
23223;BME280;11780;13.904;100.620;2023-09-30T05:34:08;101151.16;;;30.89;70.36
23223;BME280;11780;13.904;100.620;2023-09-30T05:36:38;101142.78;;;30.80;70.27
23223;BME280;11780;13.904;100.620;2023-09-30T05:39:09;101138.75;;;30.87;70.22
23223;BME280;11780;13.904;100.620;2023-09-30T05:41:40;101129.03;;;30.89;69.90
23223;BME280;11780;13.904;100.620;2023-09-30T05:44:12;101124.16;;;30.86;70.04
23223;BME280;11780;13.904;100.620;2023-09-30T05:46:44;101124.00;;;30.91;69.45
23223;BME280;11780;13.904;100.620;2023-09-30T05:49:15;101116.38;;;30.88;69.18
23223;BME280;11780;13.904;100.620;2023-09-30T05:51:45;101116.16;;;30.84;69.97
23223;BME280;11780;13.904;100.620;2023-09-30T05:54:17;101116.38;;;30.88;69.60
23223;BME280;11780;13.904;100.620;2023-09-30T05:56:47;101115.19;;;30.80;69.66
23223;BME280;11780;13.904;100.620;2023-09-30T05:59:19;101108.19;;;30.83;69.75
23223;BME280;11780;13.904;100.620;2023-09-30T06:01:50;101113.09;;;30.86;69.64
23223;BME280;11780;13.904;100.620;2023-09-30T06:04:21;101102.56;;;30.88;69.64
23223;BME280;11780;13.904;100.620;2023-09-30T06:06:52;101100.72;;;30.83;69.91
23223;BME280;11780;13.904;100.620;2023-09-30T06:09:22;101090.81;;;30.82;69.90
23223;BME280;11780;13.904;100.620;2023-09-30T06:11:55;101093.25;;;30.84;69.94
23223;BME280;11780;13.904;100.620;2023-09-30T06:14:25;101091.28;;;30.84;69.91
23223;BME280;11780;13.904;100.620;2023-09-30T06:16:57;101085.94;;;30.79;69.83
23223;BME280;11780;13.904;100.620;2023-09-30T06:19:28;101083.84;;;30.85;69.61
23223;BME280;11780;13.904;100.620;2023-09-30T06:22:00;101079.56;;;30.79;70.06
23223;BME280;11780;13.904;100.620;2023-09-30T06:24:33;101073.75;;;30.80;70.02
23223;BME280;11780;13.904;100.620;2023-09-30T06:27:05;101071.78;;;30.81;70.02
23223;BME280;11780;13.904;100.620;2023-09-30T06:29:36;101066.25;;;30.81;70.53
23223;BME280;11780;13.904;100.620;2023-09-30T06:32:08;101062.03;;;30.75;70.65
23223;BME280;11780;13.904;100.620;2023-09-30T06:34:38;101059.09;;;30.80;70.21
23223;BME280;11780;13.904;100.620;2023-09-30T06:37:09;101049.41;;;30.82;69.76
23223;BME280;11780;13.904;100.620;2023-09-30T06:39:40;101037.63;;;30.77;69.74
23223;BME280;11780;13.904;100.620;2023-09-30T06:42:10;101036.06;;;30.84;69.61
23223;BME280;11780;13.904;100.620;2023-09-30T06:44:40;101029.91;;;30.88;69.64
23223;BME280;11780;13.904;100.620;2023-09-30T06:47:11;101019.50;;;30.84;69.59
23223;BME280;11780;13.904;100.620;2023-09-30T06:49:42;101026.34;;;30.87;69.58
23223;BME280;11780;13.904;100.620;2023-09-30T06:52:13;101015.94;;;30.84;69.80
23223;BME280;11780;13.904;100.620;2023-09-30T06:54:43;101011.41;;;30.88;69.74
23223;BME280;11780;13.904;100.620;2023-09-30T06:57:13;101000.69;;;30.95;68.97
23223;BME280;11780;13.904;100.620;2023-09-30T06:59:44;101002.34;;;30.96;69.05
23223;BME280;11780;13.904;100.620;2023-09-30T07:02:14;100996.47;;;30.89;69.27
23223;BME280;11780;13.904;100.620;2023-09-30T07:04:45;100992.69;;;30.85;69.64
23223;BME280;11780;13.904;100.620;2023-09-30T07:07:15;100988.31;;;30.84;70.22
23223;BME280;11780;13.904;100.620;2023-09-30T07:09:45;100977.38;;;30.79;70.30
23223;BME280;11780;13.904;100.620;2023-09-30T07:12:16;100979.19;;;30.83;70.58
23223;BME280;11780;13.904;100.620;2023-09-30T07:14:47;100975.00;;;30.86;70.38
23223;BME280;11780;13.904;100.620;2023-09-30T07:17:17;100964.09;;;30.81;70.81
23223;BME280;11780;13.904;100.620;2023-09-30T07:19:47;100968.47;;;30.82;70.66
23223;BME280;11780;13.904;100.620;2023-09-30T07:22:18;100966.69;;;30.77;70.99
23223;BME280;11780;13.904;100.620;2023-09-30T07:25:07;100959.53;;;30.76;71.74
23223;BME280;11780;13.904;100.620;2023-09-30T07:27:38;100951.72;;;30.78;71.64
23223;BME280;11780;13.904;100.620;2023-09-30T07:30:09;100936.47;;;30.81;71.40
23223;BME280;11780;13.904;100.620;2023-09-30T07:32:43;100932.72;;;30.77;71.72
23223;BME280;11780;13.904;100.620;2023-09-30T07:35:14;100933.72;;;30.81;71.28
23223;BME280;11780;13.904;100.620;2023-09-30T07:37:45;100929.97;;;30.86;71.47
23223;BME280;11780;13.904;100.620;2023-09-30T07:40:15;100916.50;;;30.84;70.75
23223;BME280;11780;13.904;100.620;2023-09-30T07:42:46;100901.06;;;30.83;70.76
23223;BME280;11780;13.904;100.620;2023-09-30T07:45:17;100905.94;;;30.86;70.95
23223;BME280;11780;13.904;100.620;2023-09-30T07:47:52;100892.94;;;30.87;70.65
23223;BME280;11780;13.904;100.620;2023-09-30T07:50:34;100893.13;;;30.90;70.46
23223;BME280;11780;13.904;100.620;2023-09-30T07:53:17;100897.84;;;30.90;70.42
23223;BME280;11780;13.904;100.620;2023-09-30T07:55:48;100895.06;;;30.90;70.56
23223;BME280;11780;13.904;100.620;2023-09-30T07:58:19;100900.25;;;30.91;70.79
23223;BME280;11780;13.904;100.620;2023-09-30T08:00:52;100894.59;;;30.96;70.30
23223;BME280;11780;13.904;100.620;2023-09-30T08:03:23;100888.59;;;30.94;70.20
23223;BME280;11780;13.904;100.620;2023-09-30T08:05:56;100893.13;;;30.99;70.31
23223;BME280;11780;13.904;100.620;2023-09-30T08:08:31;100884.84;;;30.99;70.05
23223;BME280;11780;13.904;100.620;2023-09-30T08:11:31;100882.59;;;31.10;69.11
23223;BME280;11780;13.904;100.620;2023-09-30T08:14:04;100870.09;;;31.04;69.78
23223;BME280;11780;13.904;100.620;2023-09-30T08:16:52;100866.19;;;31.05;70.11
23223;BME280;11780;13.904;100.620;2023-09-30T08:19:23;100880.66;;;31.10;70.09
23223;BME280;11780;13.904;100.620;2023-09-30T08:22:12;100869.81;;;31.14;69.75
23223;BME280;11780;13.904;100.620;2023-09-30T08:25:02;100864.28;;;31.14;69.59
23223;BME280;11780;13.904;100.620;2023-09-30T08:27:50;100867.53;;;31.16;69.43
23223;BME280;11780;13.904;100.620;2023-09-30T08:30:24;100870.13;;;31.12;70.13
23223;BME280;11780;13.904;100.620;2023-09-30T08:32:54;100865.72;;;31.11;70.55
23223;BME280;11780;13.904;100.620;2023-09-30T08:38:26;100874.31;;;31.10;70.96
23223;BME280;11780;13.904;100.620;2023-09-30T08:40:56;100871.25;;;31.11;71.14
23223;BME280;11780;13.904;100.620;2023-09-30T08:43:28;100874.19;;;31.15;71.31
23223;BME280;11780;13.904;100.620;2023-09-30T08:46:31;100864.78;;;31.16;71.23
23223;BME280;11780;13.904;100.620;2023-09-30T08:49:04;100863.75;;;31.12;71.70
23223;BME280;11780;13.904;100.620;2023-09-30T08:51:35;100869.44;;;31.07;72.05
23223;BME280;11780;13.904;100.620;2023-09-30T08:54:06;100871.88;;;30.99;72.15
23223;BME280;11780;13.904;100.620;2023-09-30T08:56:52;100873.00;;;30.98;72.13
23223;BME280;11780;13.904;100.620;2023-09-30T08:59:24;100886.66;;;30.95;72.08
23223;BME280;11780;13.904;100.620;2023-09-30T09:01:55;100874.47;;;30.96;72.36
23223;BME280;11780;13.904;100.620;2023-09-30T09:04:26;100872.00;;;30.94;72.74
23223;BME280;11780;13.904;100.620;2023-09-30T09:06:56;100854.63;;;30.94;72.92
23223;BME280;11780;13.904;100.620;2023-09-30T09:09:27;100859.81;;;30.95;73.13
23223;BME280;11780;13.904;100.620;2023-09-30T09:11:58;100865.34;;;30.95;73.10
23223;BME280;11780;13.904;100.620;2023-09-30T09:14:38;100857.69;;;30.92;73.17
23223;BME280;11780;13.904;100.620;2023-09-30T09:17:11;100858.53;;;30.93;73.33
23223;BME280;11780;13.904;100.620;2023-09-30T09:19:44;100865.31;;;30.87;73.30
23223;BME280;11780;13.904;100.620;2023-09-30T09:22:39;100858.03;;;30.91;73.16
23223;BME280;11780;13.904;100.620;2023-09-30T09:25:10;100863.06;;;30.89;73.13
23223;BME280;11780;13.904;100.620;2023-09-30T09:27:41;100860.16;;;30.94;73.18
23223;BME280;11780;13.904;100.620;2023-09-30T09:30:21;100868.44;;;30.94;73.27
23223;BME280;11780;13.904;100.620;2023-09-30T09:35:37;100874.09;;;30.80;73.93
23223;BME280;11780;13.904;100.620;2023-09-30T09:38:17;100875.03;;;30.75;74.00
23223;BME280;11780;13.904;100.620;2023-09-30T09:40:48;100877.00;;;30.75;74.13
23223;BME280;11780;13.904;100.620;2023-09-30T09:43:19;100876.34;;;30.78;74.21
23223;BME280;11780;13.904;100.620;2023-09-30T09:45:49;100884.47;;;30.74;74.68
23223;BME280;11780;13.904;100.620;2023-09-30T09:48:21;100887.09;;;30.79;75.04
23223;BME280;11780;13.904;100.620;2023-09-30T09:50:52;100886.25;;;30.79;75.15
23223;BME280;11780;13.904;100.620;2023-09-30T09:53:23;100883.38;;;30.84;75.56
23223;BME280;11780;13.904;100.620;2023-09-30T09:55:56;100892.78;;;30.83;75.44
23223;BME280;11780;13.904;100.620;2023-09-30T09:58:32;100880.75;;;30.79;75.38
23223;BME280;11780;13.904;100.620;2023-09-30T10:01:09;100874.88;;;30.72;75.35
23223;BME280;11780;13.904;100.620;2023-09-30T10:03:41;100863.66;;;30.77;75.30
23223;BME280;11780;13.904;100.620;2023-09-30T10:06:15;100862.72;;;30.81;75.48
23223;BME280;11780;13.904;100.620;2023-09-30T10:08:46;100862.25;;;30.88;75.89
23223;BME280;11780;13.904;100.620;2023-09-30T10:11:21;100876.38;;;30.87;76.29
23223;BME280;11780;13.904;100.620;2023-09-30T10:13:52;100873.13;;;30.84;76.33
23223;BME280;11780;13.904;100.620;2023-09-30T10:19:14;100897.97;;;30.84;76.71
23223;BME280;11780;13.904;100.620;2023-09-30T10:24:59;100924.78;;;30.84;76.59
23223;BME280;11780;13.904;100.620;2023-09-30T10:27:30;100929.66;;;30.78;76.70
23223;BME280;11780;13.904;100.620;2023-09-30T10:40:58;100921.81;;;30.72;76.34
23223;BME280;11780;13.904;100.620;2023-09-30T10:43:35;100919.81;;;30.63;76.19
23223;BME280;11780;13.904;100.620;2023-09-30T10:46:35;100928.72;;;30.60;76.36
23223;BME280;11780;13.904;100.620;2023-09-30T10:51:56;100929.97;;;30.54;76.29
23223;BME280;11780;13.904;100.620;2023-09-30T10:54:33;100933.50;;;30.46;76.82
23223;BME280;11780;13.904;100.620;2023-09-30T10:57:03;100946.81;;;30.44;76.89
23223;BME280;11780;13.904;100.620;2023-09-30T10:59:34;100944.69;;;30.41;77.26
23223;BME280;11780;13.904;100.620;2023-09-30T13:27:00;101083.50;;;29.62;78.11
23223;BME280;11780;13.904;100.620;2023-09-30T13:29:32;101086.97;;;29.68;78.13
23223;BME280;11780;13.904;100.620;2023-09-30T13:32:02;101093.72;;;29.76;78.18
23223;BME280;11780;13.904;100.620;2023-09-30T13:34:33;101095.66;;;29.75;77.75
23223;BME280;11780;13.904;100.620;2023-09-30T13:37:03;101103.53;;;29.82;77.79
23223;BME280;11780;13.904;100.620;2023-09-30T13:39:34;101092.69;;;29.86;77.46
23223;BME280;11780;13.904;100.620;2023-09-30T13:42:04;101105.97;;;29.84;77.32
23223;BME280;11780;13.904;100.620;2023-09-30T13:44:37;101111.59;;;29.78;77.64
23223;BME280;11780;13.904;100.620;2023-09-30T13:47:07;101108.25;;;29.82;77.50
23223;BME280;11780;13.904;100.620;2023-09-30T13:49:38;101118.94;;;29.83;77.10
23223;BME280;11780;13.904;100.620;2023-09-30T13:52:09;101113.53;;;29.92;77.32
23223;BME280;11780;13.904;100.620;2023-09-30T13:54:39;101117.59;;;29.95;76.91
23223;BME280;11780;13.904;100.620;2023-09-30T13:57:10;101119.47;;;29.99;76.98
23223;BME280;11780;13.904;100.620;2023-09-30T13:59:41;101126.31;;;30.02;76.95
23223;BME280;11780;13.904;100.620;2023-09-30T14:02:11;101117.91;;;30.07;76.77
23223;BME280;11780;13.904;100.620;2023-09-30T14:04:42;101123.75;;;30.05;76.70
23223;BME280;11780;13.904;100.620;2023-09-30T14:07:14;101128.16;;;30.06;76.88
23223;BME280;11780;13.904;100.620;2023-09-30T14:09:45;101128.03;;;30.12;76.42
23223;BME280;11780;13.904;100.620;2023-09-30T14:12:16;101136.81;;;30.14;76.52
23223;BME280;11780;13.904;100.620;2023-09-30T14:14:46;101130.06;;;30.20;76.17
23223;BME280;11780;13.904;100.620;2023-09-30T14:17:19;101141.09;;;30.20;75.96
23223;BME280;11780;13.904;100.620;2023-09-30T14:19:49;101135.56;;;30.20;76.08
23223;BME280;11780;13.904;100.620;2023-09-30T14:22:20;101142.94;;;30.25;76.06
23223;BME280;11780;13.904;100.620;2023-09-30T14:24:50;101137.41;;;30.25;75.94
23223;BME280;11780;13.904;100.620;2023-09-30T14:27:21;101144.56;;;30.26;76.07
23223;BME280;11780;13.904;100.620;2023-09-30T14:29:51;101147.94;;;30.22;76.10
23223;BME280;11780;13.904;100.620;2023-09-30T14:32:22;101142.41;;;30.22;76.37
23223;BME280;11780;13.904;100.620;2023-09-30T14:34:53;101143.53;;;30.21;76.45
23223;BME280;11780;13.904;100.620;2023-09-30T14:37:24;101148.25;;;30.21;76.75
23223;BME280;11780;13.904;100.620;2023-09-30T14:39:55;101142.13;;;30.24;76.47
23223;BME280;11780;13.904;100.620;2023-09-30T14:42:25;101143.34;;;30.18;76.92
23223;BME280;11780;13.904;100.620;2023-09-30T14:44:57;101147.44;;;30.20;76.37
23223;BME280;11780;13.904;100.620;2023-09-30T14:47:27;101146.09;;;30.18;76.39
23223;BME280;11780;13.904;100.620;2023-09-30T14:49:58;101155.81;;;30.15;76.68
23223;BME280;11780;13.904;100.620;2023-09-30T14:52:31;101157.28;;;30.13;76.68
23223;BME280;11780;13.904;100.620;2023-09-30T14:55:02;101159.91;;;30.18;76.72
23223;BME280;11780;13.904;100.620;2023-09-30T14:57:32;101156.94;;;30.14;76.83
23223;BME280;11780;13.904;100.620;2023-09-30T15:00:02;101158.06;;;30.13;76.71
23223;BME280;11780;13.904;100.620;2023-09-30T15:02:33;101159.09;;;30.17;77.16
23223;BME280;11780;13.904;100.620;2023-09-30T15:05:04;101153.88;;;30.16;76.76
23223;BME280;11780;13.904;100.620;2023-09-30T15:07:35;101152.56;;;30.13;76.50
23223;BME280;11780;13.904;100.620;2023-09-30T15:10:08;101157.66;;;30.20;76.71
23223;BME280;11780;13.904;100.620;2023-09-30T15:12:39;101156.72;;;30.25;76.90
23223;BME280;11780;13.904;100.620;2023-09-30T15:15:09;101154.19;;;30.28;76.90
23223;BME280;11780;13.904;100.620;2023-09-30T15:17:40;101161.03;;;30.17;77.14
23223;BME280;11780;13.904;100.620;2023-09-30T15:20:11;101156.53;;;30.21;77.50
23223;BME280;11780;13.904;100.620;2023-09-30T15:22:42;101155.31;;;30.27;77.21
23223;BME280;11780;13.904;100.620;2023-09-30T15:25:13;101160.09;;;30.21;76.97
23223;BME280;11780;13.904;100.620;2023-09-30T15:27:44;101154.91;;;30.20;77.06
23223;BME280;11780;13.904;100.620;2023-09-30T15:30:15;101158.88;;;30.14;77.45
23223;BME280;11780;13.904;100.620;2023-09-30T15:32:45;101157.66;;;30.20;77.51
23223;BME280;11780;13.904;100.620;2023-09-30T15:35:16;101155.22;;;30.18;77.24
23223;BME280;11780;13.904;100.620;2023-09-30T15:37:46;101163.06;;;30.25;77.26
23223;BME280;11780;13.904;100.620;2023-09-30T15:40:17;101167.06;;;30.19;77.58
23223;BME280;11780;13.904;100.620;2023-09-30T15:42:47;101164.19;;;30.24;77.33
23223;BME280;11780;13.904;100.620;2023-09-30T15:45:18;101154.69;;;30.16;77.54
23223;BME280;11780;13.904;100.620;2023-09-30T15:47:49;101157.66;;;30.20;77.21
23223;BME280;11780;13.904;100.620;2023-09-30T15:50:19;101165.41;;;30.18;77.20
23223;BME280;11780;13.904;100.620;2023-09-30T15:52:50;101163.78;;;30.17;77.33
23223;BME280;11780;13.904;100.620;2023-09-30T15:55:20;101166.88;;;30.15;77.45
23223;BME280;11780;13.904;100.620;2023-09-30T15:57:52;101171.06;;;30.13;77.25
23223;BME280;11780;13.904;100.620;2023-09-30T16:00:23;101161.25;;;30.06;77.33
23223;BME280;11780;13.904;100.620;2023-09-30T16:02:53;101164.81;;;30.07;77.58